createdAt,value
2017-05-10T00:00:00.509Z,1007.29
2017-05-10T00:01:01.151Z,1007.29
2017-05-10T00:02:02.041Z,1007.37
2017-05-10T00:03:02.685Z,1007.27
2017-05-10T00:04:03.325Z,1007.27
2017-05-10T00:05:03.965Z,1007.31
2017-05-10T00:06:04.608Z,1007.30
2017-05-10T00:07:05.252Z,1007.28
2017-05-10T00:08:05.895Z,1007.32
2017-05-10T00:09:06.543Z,1007.33
2017-05-10T00:10:07.478Z,1007.26
2017-05-10T00:11:08.120Z,1007.27
2017-05-10T00:12:08.763Z,1007.29
2017-05-10T00:13:09.402Z,1007.28
2017-05-10T00:14:10.044Z,1007.34
2017-05-10T00:15:10.684Z,1007.28
2017-05-10T00:16:11.325Z,1007.19
2017-05-10T00:17:11.961Z,1007.21
2017-05-10T00:18:12.603Z,1007.21
2017-05-10T00:19:13.391Z,1007.26
2017-05-10T00:20:14.033Z,1007.23
2017-05-10T00:21:14.678Z,1007.17
2017-05-10T00:22:15.316Z,1007.14
2017-05-10T00:23:15.958Z,1007.23
2017-05-10T00:24:16.601Z,1007.14
2017-05-10T00:25:17.244Z,1007.15
2017-05-10T00:26:17.883Z,1007.17
2017-05-10T00:27:18.825Z,1007.15
2017-05-10T00:28:19.469Z,1007.22
2017-05-10T00:29:20.114Z,1007.22
2017-05-10T00:30:20.755Z,1007.21
2017-05-10T00:31:21.397Z,1007.18
2017-05-10T00:32:22.039Z,1007.18
2017-05-10T00:33:22.680Z,1007.15
2017-05-10T00:34:23.322Z,1007.22
2017-05-10T00:35:24.163Z,1007.18
2017-05-10T00:36:24.807Z,1007.20
2017-05-10T00:37:25.448Z,1007.15
2017-05-10T00:38:26.093Z,1007.15
2017-05-10T00:39:26.732Z,1007.16
2017-05-10T00:40:27.375Z,1007.14
2017-05-10T00:41:28.018Z,1007.14
2017-05-10T00:42:28.658Z,1007.09
2017-05-10T00:43:29.457Z,1007.15
2017-05-10T00:44:30.088Z,1007.17
2017-05-10T00:45:30.728Z,1007.15
2017-05-10T00:46:31.370Z,1007.08
2017-05-10T00:47:32.013Z,1007.10
2017-05-10T00:48:32.655Z,1007.06
2017-05-10T00:49:33.295Z,1006.99
2017-05-10T00:50:33.934Z,1007.01
2017-05-10T00:51:34.775Z,1007.00
2017-05-10T00:52:35.418Z,1006.87
2017-05-10T00:53:36.060Z,1006.93
2017-05-10T00:54:36.702Z,1006.94
2017-05-10T00:55:37.337Z,1006.93
2017-05-10T00:56:37.978Z,1006.88
2017-05-10T00:57:38.619Z,1006.86
2017-05-10T00:58:39.260Z,1006.90
2017-05-10T00:59:39.902Z,1006.84
2017-05-10T01:00:40.691Z,1006.80
2017-05-10T01:01:41.335Z,1006.75
2017-05-10T01:02:41.977Z,1006.82
2017-05-10T01:03:42.618Z,1006.76
2017-05-10T01:04:43.254Z,1006.76
2017-05-10T01:05:43.895Z,1006.79
2017-05-10T01:06:44.538Z,1006.73
2017-05-10T01:07:45.178Z,1006.83
2017-05-10T01:08:46.022Z,1006.76
2017-05-10T01:09:46.662Z,1006.77
2017-05-10T01:10:47.300Z,1006.77
2017-05-10T01:11:47.943Z,1006.71
2017-05-10T01:12:48.580Z,1006.73
2017-05-10T01:13:49.217Z,1006.69
2017-05-10T01:14:49.853Z,1006.71
2017-05-10T01:15:50.492Z,1006.68
2017-05-10T01:16:51.283Z,1006.75
2017-05-10T01:17:51.928Z,1006.71
2017-05-10T01:18:52.570Z,1006.66
2017-05-10T01:19:53.211Z,1006.66
2017-05-10T01:20:53.854Z,1006.63
2017-05-10T01:21:54.492Z,1006.62
2017-05-10T01:22:55.132Z,1006.65
2017-05-10T01:23:55.773Z,1006.71
2017-05-10T01:24:56.616Z,1006.64
2017-05-10T01:25:57.260Z,1006.64
2017-05-10T01:26:57.901Z,1006.68
2017-05-10T01:27:58.538Z,1006.62
2017-05-10T01:28:59.175Z,1006.54
2017-05-10T01:29:59.815Z,1006.57
2017-05-10T01:31:00.457Z,1006.62
2017-05-10T01:32:01.103Z,1006.52
2017-05-10T01:33:01.744Z,1006.55
2017-05-10T01:34:02.583Z,1006.52
2017-05-10T01:35:03.228Z,1006.51
2017-05-10T01:36:03.864Z,1006.51
2017-05-10T01:37:04.506Z,1006.48
2017-05-10T01:38:05.146Z,1006.54
2017-05-10T01:39:05.786Z,1006.51
2017-05-10T01:40:06.434Z,1006.54
2017-05-10T01:41:07.130Z,1006.43
2017-05-10T01:42:08.070Z,1006.45
2017-05-10T01:43:08.714Z,1006.52
2017-05-10T01:44:09.354Z,1006.44
2017-05-10T01:45:09.996Z,1006.39
2017-05-10T01:46:10.637Z,1006.47
2017-05-10T01:47:11.279Z,1006.46
2017-05-10T01:48:11.915Z,1006.40
2017-05-10T01:49:12.552Z,1006.39
2017-05-10T01:50:13.343Z,1006.45
2017-05-10T01:51:13.983Z,1006.34
2017-05-10T01:52:14.623Z,1006.40
2017-05-10T01:53:15.265Z,1006.35
2017-05-10T01:54:15.907Z,1006.38
2017-05-10T01:55:16.546Z,1006.32
2017-05-10T01:56:17.188Z,1006.35
2017-05-10T01:57:17.828Z,1006.38
2017-05-10T01:58:18.666Z,1006.28
2017-05-10T01:59:19.307Z,1006.24
2017-05-10T02:00:19.952Z,1006.32
2017-05-10T02:01:20.593Z,1006.33
2017-05-10T02:02:21.232Z,1006.26
2017-05-10T02:03:21.871Z,1006.33
2017-05-10T02:04:22.510Z,1006.26
2017-05-10T02:05:23.151Z,1006.26
2017-05-10T02:06:24.088Z,1006.19
2017-05-10T02:07:24.731Z,1006.26
2017-05-10T02:08:25.370Z,1006.29
2017-05-10T02:09:26.013Z,1006.19
2017-05-10T02:10:26.652Z,1006.25
2017-05-10T02:11:27.295Z,1006.19
2017-05-10T02:12:27.938Z,1006.18
2017-05-10T02:13:28.579Z,1006.12
2017-05-10T02:14:29.221Z,1006.13
2017-05-10T02:15:30.010Z,1006.13
2017-05-10T02:16:30.653Z,1006.08
2017-05-10T02:17:31.294Z,1006.14
2017-05-10T02:18:31.936Z,1006.03
2017-05-10T02:19:32.577Z,1006.05
2017-05-10T02:20:33.217Z,1006.04
2017-05-10T02:21:33.859Z,1006.10
2017-05-10T02:22:34.496Z,1006.06
2017-05-10T02:23:35.336Z,1006.05
2017-05-10T02:24:35.977Z,1006.04
2017-05-10T02:25:36.620Z,1005.99
2017-05-10T02:26:37.261Z,1006.06
2017-05-10T02:27:37.901Z,1006.08
2017-05-10T02:28:38.540Z,1006.06
2017-05-10T02:29:39.182Z,1006.06
2017-05-10T02:30:39.822Z,1005.99
2017-05-10T02:31:40.663Z,1006.01
2017-05-10T02:32:41.307Z,1006.01
2017-05-10T02:33:41.947Z,1006.04
2017-05-10T02:34:42.588Z,1005.96
2017-05-10T02:35:43.228Z,1005.95
2017-05-10T02:36:43.872Z,1005.99
2017-05-10T02:37:44.515Z,1005.91
2017-05-10T02:38:45.156Z,1005.91
2017-05-10T02:39:45.942Z,1005.91
2017-05-10T02:40:46.587Z,1005.92
2017-05-10T02:41:47.228Z,1005.86
2017-05-10T02:42:47.869Z,1005.87
2017-05-10T02:43:48.510Z,1005.92
2017-05-10T02:44:49.150Z,1005.92
2017-05-10T02:45:49.794Z,1005.84
2017-05-10T02:46:50.433Z,1005.84
2017-05-10T02:47:51.076Z,1005.82
2017-05-10T02:48:51.917Z,1005.71
2017-05-10T02:49:52.558Z,1005.81
2017-05-10T02:50:53.198Z,1005.76
2017-05-10T02:51:53.839Z,1005.76
2017-05-10T02:52:54.482Z,1005.67
2017-05-10T02:53:55.126Z,1005.78
2017-05-10T02:54:55.766Z,1005.76
2017-05-10T02:55:56.408Z,1005.76
2017-05-10T02:56:57.244Z,1005.70
2017-05-10T02:57:57.887Z,1005.76
2017-05-10T02:58:58.528Z,1005.73
2017-05-10T02:59:59.164Z,1005.66
2017-05-10T03:00:59.807Z,1005.62
2017-05-10T03:02:00.442Z,1005.62
2017-05-10T03:03:01.086Z,1005.57
2017-05-10T03:04:01.730Z,1005.63
2017-05-10T03:05:02.519Z,1005.60
2017-05-10T03:06:03.158Z,1005.59
2017-05-10T03:07:03.797Z,1005.51
2017-05-10T03:08:04.437Z,1005.46
2017-05-10T03:09:05.077Z,1005.56
2017-05-10T03:10:05.724Z,1005.45
2017-05-10T03:11:06.685Z,1005.45
2017-05-10T03:12:07.327Z,1005.57
2017-05-10T03:13:08.266Z,1005.43
2017-05-10T03:14:08.911Z,1005.50
2017-05-10T03:15:09.546Z,1005.42
2017-05-10T03:16:10.193Z,1005.46
2017-05-10T03:17:10.836Z,1005.42
2017-05-10T03:18:11.481Z,1005.44
2017-05-10T03:19:12.117Z,1005.42
2017-05-10T03:20:12.755Z,1005.42
2017-05-10T03:21:13.598Z,1005.46
2017-05-10T03:22:14.240Z,1005.45
2017-05-10T03:23:14.882Z,1005.46
2017-05-10T03:24:15.522Z,1005.43
2017-05-10T03:25:16.159Z,1005.41
2017-05-10T03:26:16.805Z,1005.38
2017-05-10T03:27:17.440Z,1005.37
2017-05-10T03:28:18.083Z,1005.31
2017-05-10T03:29:18.727Z,1005.34
2017-05-10T03:30:19.569Z,1005.34
2017-05-10T03:31:20.209Z,1005.29
2017-05-10T03:32:20.847Z,1005.30
2017-05-10T03:33:21.489Z,1005.28
2017-05-10T03:34:22.130Z,1005.19
2017-05-10T03:35:22.770Z,1005.15
2017-05-10T03:36:23.418Z,1005.13
2017-05-10T03:37:24.055Z,1005.21
2017-05-10T03:38:24.894Z,1005.06
2017-05-10T03:39:25.540Z,1005.09
2017-05-10T03:40:26.176Z,1005.08
2017-05-10T03:41:26.819Z,1005.06
2017-05-10T03:42:27.458Z,1005.09
2017-05-10T03:43:28.102Z,1005.03
2017-05-10T03:44:28.744Z,1005.04
2017-05-10T03:45:29.386Z,1005.08
2017-05-10T03:46:30.228Z,1005.06
2017-05-10T03:47:30.873Z,1005.03
2017-05-10T03:48:31.514Z,1005.04
2017-05-10T03:49:32.153Z,1005.04
2017-05-10T03:50:32.795Z,1005.05
2017-05-10T03:51:33.435Z,1005.05
2017-05-10T03:52:34.073Z,1005.07
2017-05-10T03:53:34.713Z,1005.02
2017-05-10T03:54:35.705Z,1005.03
2017-05-10T03:55:36.347Z,1005.10
2017-05-10T03:56:36.987Z,1005.07
2017-05-10T03:57:37.631Z,1005.04
2017-05-10T03:58:38.275Z,1005.10
2017-05-10T03:59:38.914Z,1005.07
2017-05-10T04:00:39.555Z,1005.06
2017-05-10T04:01:40.195Z,1005.06
2017-05-10T04:02:40.837Z,1005.02
2017-05-10T04:03:41.679Z,1005.07
2017-05-10T04:04:42.320Z,1005.02
2017-05-10T04:05:42.956Z,1005.01
2017-05-10T04:06:43.596Z,1005.05
2017-05-10T04:07:44.239Z,1005.01
2017-05-10T04:08:44.879Z,1005.02
2017-05-10T04:09:45.519Z,1005.04
2017-05-10T04:10:46.159Z,1005.06
2017-05-10T04:11:46.998Z,1005.05
2017-05-10T04:12:47.642Z,1005.02
2017-05-10T04:13:48.284Z,1005.07
2017-05-10T04:14:48.925Z,1005.01
2017-05-10T04:15:49.567Z,1004.97
2017-05-10T04:16:50.209Z,1004.95
2017-05-10T04:17:50.844Z,1004.89
2017-05-10T04:18:51.483Z,1004.91
2017-05-10T04:19:52.325Z,1004.87
2017-05-10T04:20:52.967Z,1004.87
2017-05-10T04:21:53.606Z,1004.87
2017-05-10T04:22:54.248Z,1004.80
2017-05-10T04:23:54.891Z,1004.78
2017-05-10T04:24:55.531Z,1004.83
2017-05-10T04:25:56.173Z,1004.77
2017-05-10T04:26:56.812Z,1004.74
2017-05-10T04:27:57.654Z,1004.73
2017-05-10T04:28:58.297Z,1004.69
2017-05-10T04:29:58.939Z,1004.70
2017-05-10T04:30:59.581Z,1004.67
2017-05-10T04:32:00.221Z,1004.71
2017-05-10T04:33:00.864Z,1004.71
2017-05-10T04:34:01.501Z,1004.72
2017-05-10T04:35:02.142Z,1004.72
2017-05-10T04:36:02.978Z,1004.66
2017-05-10T04:37:03.622Z,1004.68
2017-05-10T04:38:04.262Z,1004.84
2017-05-10T04:39:04.904Z,1004.66
2017-05-10T04:40:05.545Z,1004.70
2017-05-10T04:41:06.186Z,1004.68
2017-05-10T04:42:06.827Z,1004.70
2017-05-10T04:43:07.465Z,1004.67
2017-05-10T04:44:08.109Z,1004.75
2017-05-10T04:45:08.893Z,1004.69
2017-05-10T04:46:09.542Z,1004.74
2017-05-10T04:47:10.176Z,1004.69
2017-05-10T04:48:10.821Z,1004.71
2017-05-10T04:49:11.461Z,1004.63
2017-05-10T04:50:12.104Z,1004.68
2017-05-10T04:51:12.744Z,1004.68
2017-05-10T04:52:13.387Z,1004.63
2017-05-10T04:53:14.229Z,1004.59
2017-05-10T04:54:14.871Z,1004.63
2017-05-10T04:55:15.509Z,1004.61
2017-05-10T04:56:16.156Z,1004.47
2017-05-10T04:57:16.855Z,1004.56
2017-05-10T04:58:17.488Z,1004.54
2017-05-10T04:59:18.128Z,1004.49
2017-05-10T05:00:18.770Z,1004.48
2017-05-10T05:01:19.560Z,1004.54
2017-05-10T05:02:20.200Z,1004.49
2017-05-10T05:03:20.841Z,1004.48
2017-05-10T05:04:21.477Z,1004.56
2017-05-10T05:05:22.120Z,1004.47
2017-05-10T05:06:22.765Z,1004.50
2017-05-10T05:07:23.405Z,1004.47
2017-05-10T05:08:24.046Z,1004.51
2017-05-10T05:09:24.987Z,1004.50
2017-05-10T05:10:25.627Z,1004.52
2017-05-10T05:11:26.268Z,1004.53
2017-05-10T05:12:26.906Z,1004.57
2017-05-10T05:13:27.549Z,1004.57
2017-05-10T05:14:28.189Z,1004.50
2017-05-10T05:15:28.829Z,1004.48
2017-05-10T05:16:29.474Z,1004.59
2017-05-10T05:17:30.110Z,1004.56
2017-05-10T05:18:31.200Z,1004.54
2017-05-10T05:19:31.836Z,1004.50
2017-05-10T05:20:32.478Z,1004.50
2017-05-10T05:21:33.118Z,1004.42
2017-05-10T05:22:33.753Z,1004.39
2017-05-10T05:23:34.397Z,1004.46
2017-05-10T05:24:35.037Z,1004.46
2017-05-10T05:25:35.677Z,1004.55
2017-05-10T05:26:36.568Z,1004.44
2017-05-10T05:27:37.217Z,1004.38
2017-05-10T05:28:37.854Z,1004.43
2017-05-10T05:29:38.496Z,1004.34
2017-05-10T05:30:39.131Z,1004.37
2017-05-10T05:31:39.767Z,1004.36
2017-05-10T05:32:40.411Z,1004.36
2017-05-10T05:33:41.050Z,1004.35
2017-05-10T05:34:41.937Z,1004.40
2017-05-10T05:35:42.577Z,1004.38
2017-05-10T05:36:43.220Z,1004.43
2017-05-10T05:37:43.860Z,1004.31
2017-05-10T05:38:44.504Z,1004.31
2017-05-10T05:39:45.146Z,1004.29
2017-05-10T05:40:45.786Z,1004.31
2017-05-10T05:41:46.427Z,1004.29
2017-05-10T05:42:47.409Z,1004.26
2017-05-10T05:43:48.049Z,1004.37
2017-05-10T05:44:48.687Z,1004.37
2017-05-10T05:45:49.329Z,1004.36
2017-05-10T05:46:49.968Z,1004.26
2017-05-10T05:47:50.609Z,1004.26
2017-05-10T05:48:51.249Z,1004.29
2017-05-10T05:49:51.893Z,1004.24
2017-05-10T05:50:52.784Z,1004.31
2017-05-10T05:51:53.425Z,1004.20
2017-05-10T05:52:54.062Z,1004.29
2017-05-10T05:53:54.702Z,1004.28
2017-05-10T05:54:55.345Z,1004.29
2017-05-10T05:55:55.984Z,1004.35
2017-05-10T05:56:56.622Z,1004.20
2017-05-10T05:57:57.260Z,1004.21
2017-05-10T05:58:57.899Z,1004.20
2017-05-10T05:59:58.740Z,1004.21
2017-05-10T06:00:59.383Z,1004.25
2017-05-10T06:02:00.023Z,1004.14
2017-05-10T06:03:00.665Z,1004.19
2017-05-10T06:04:01.305Z,1004.13
2017-05-10T06:05:01.949Z,1004.18
2017-05-10T06:06:02.588Z,1004.15
2017-05-10T06:07:03.230Z,1004.20
2017-05-10T06:08:04.023Z,1004.15
2017-05-10T06:09:04.666Z,1004.19
2017-05-10T06:10:05.305Z,1004.22
2017-05-10T06:11:05.950Z,1004.21
2017-05-10T06:12:06.586Z,1004.23
2017-05-10T06:13:07.229Z,1004.24
2017-05-10T06:14:07.870Z,1004.31
2017-05-10T06:15:08.516Z,1004.25
2017-05-10T06:16:09.560Z,1004.21
2017-05-10T06:17:10.197Z,1004.40
2017-05-10T06:18:10.837Z,1004.34
2017-05-10T06:19:11.478Z,1004.27
2017-05-10T06:20:12.115Z,1004.35
2017-05-10T06:21:12.757Z,1004.35
2017-05-10T06:22:13.404Z,1004.25
2017-05-10T06:23:14.040Z,1004.23
2017-05-10T06:24:14.878Z,1004.31
2017-05-10T06:25:15.517Z,1004.31
2017-05-10T06:26:16.157Z,1004.25
2017-05-10T06:27:16.797Z,1004.19
2017-05-10T06:28:17.438Z,1004.21
2017-05-10T06:29:18.077Z,1004.19
2017-05-10T06:30:18.719Z,1004.23
2017-05-10T06:31:19.311Z,1004.22
2017-05-10T06:32:20.459Z,1004.27
2017-05-10T06:33:21.361Z,1004.20
2017-05-10T06:34:22.002Z,1004.19
2017-05-10T06:35:22.638Z,1004.14
2017-05-10T06:36:23.278Z,1004.20
2017-05-10T06:37:23.917Z,1004.14
2017-05-10T06:38:24.560Z,1004.26
2017-05-10T06:39:25.194Z,1004.21
2017-05-10T06:40:25.842Z,1004.20
2017-05-10T06:41:26.679Z,1004.23
2017-05-10T06:42:27.316Z,1004.19
2017-05-10T06:43:27.952Z,1004.09
2017-05-10T06:44:28.592Z,1004.15
2017-05-10T06:45:29.293Z,1004.21
2017-05-10T06:46:29.932Z,1004.09
2017-05-10T06:47:30.576Z,1003.98
2017-05-10T06:48:31.214Z,1004.07
2017-05-10T06:49:32.006Z,1004.10
2017-05-10T06:50:32.647Z,1004.05
2017-05-10T06:51:33.287Z,1004.10
2017-05-10T06:52:33.927Z,1004.00
2017-05-10T06:53:34.563Z,1004.12
2017-05-10T06:54:35.207Z,1004.07
2017-05-10T06:55:35.842Z,1004.10
2017-05-10T06:56:36.486Z,1004.16
2017-05-10T06:57:37.329Z,1004.10
2017-05-10T06:58:37.969Z,1004.18
2017-05-10T06:59:38.611Z,1004.16
2017-05-10T07:00:39.250Z,1004.14
2017-05-10T07:01:39.943Z,1004.16
2017-05-10T07:02:40.581Z,1004.12
2017-05-10T07:03:41.225Z,1004.12
2017-05-10T07:04:41.869Z,1004.11
2017-05-10T07:05:42.654Z,1004.01
2017-05-10T07:06:43.294Z,1004.03
2017-05-10T07:07:43.936Z,1003.98
2017-05-10T07:08:44.572Z,1004.09
2017-05-10T07:09:45.213Z,1004.06
2017-05-10T07:10:45.853Z,1004.01
2017-05-10T07:11:46.495Z,1004.04
2017-05-10T07:12:47.137Z,1004.03
2017-05-10T07:13:47.782Z,1004.07
2017-05-10T07:14:48.620Z,1004.11
2017-05-10T07:15:49.262Z,1004.00
2017-05-10T07:16:49.903Z,1004.12
2017-05-10T07:17:50.545Z,1004.11
2017-05-10T07:18:51.190Z,1004.12
2017-05-10T07:19:51.829Z,1004.12
2017-05-10T07:20:52.469Z,1003.98
2017-05-10T07:21:53.161Z,1004.10
2017-05-10T07:22:54.001Z,1004.03
2017-05-10T07:23:54.642Z,1004.05
2017-05-10T07:24:55.289Z,1004.08
2017-05-10T07:25:55.929Z,1004.08
2017-05-10T07:26:56.564Z,1004.07
2017-05-10T07:27:57.205Z,1003.92
2017-05-10T07:28:57.847Z,1004.07
2017-05-10T07:29:58.488Z,1004.01
2017-05-10T07:30:59.329Z,1004.01
2017-05-10T07:31:59.973Z,1003.98
2017-05-10T07:33:00.615Z,1003.90
2017-05-10T07:34:01.250Z,1003.89
2017-05-10T07:35:01.894Z,1004.00
2017-05-10T07:36:02.537Z,1003.95
2017-05-10T07:37:03.179Z,1003.89
2017-05-10T07:38:03.817Z,1003.87
2017-05-10T07:39:04.659Z,1003.87
2017-05-10T07:40:05.300Z,1003.91
2017-05-10T07:41:05.943Z,1003.91
2017-05-10T07:42:06.587Z,1003.96
2017-05-10T07:43:07.225Z,1003.93
2017-05-10T07:44:07.864Z,1003.92
2017-05-10T07:45:08.500Z,1003.98
2017-05-10T07:46:09.143Z,1003.88
2017-05-10T07:47:09.785Z,1003.89
2017-05-10T07:48:10.626Z,1003.90
2017-05-10T07:49:11.263Z,1003.82
2017-05-10T07:50:11.905Z,1003.89
2017-05-10T07:51:12.547Z,1003.87
2017-05-10T07:52:13.183Z,1003.91
2017-05-10T07:53:13.829Z,1003.78
2017-05-10T07:54:14.462Z,1003.74
2017-05-10T07:55:15.101Z,1003.72
2017-05-10T07:56:15.947Z,1003.71
2017-05-10T07:57:16.586Z,1003.73
2017-05-10T07:58:17.227Z,1003.63
2017-05-10T07:59:17.867Z,1003.74
2017-05-10T08:00:18.507Z,1003.80
2017-05-10T08:01:19.154Z,1003.80
2017-05-10T08:02:19.788Z,1003.72
2017-05-10T08:03:20.428Z,1003.66
2017-05-10T08:04:21.371Z,1003.70
2017-05-10T08:05:22.012Z,1003.69
2017-05-10T08:06:22.649Z,1003.72
2017-05-10T08:07:23.294Z,1003.76
2017-05-10T08:08:23.937Z,1003.71
2017-05-10T08:09:24.580Z,1003.71
2017-05-10T08:10:25.217Z,1003.76
2017-05-10T08:11:25.859Z,1003.71
2017-05-10T08:12:26.747Z,1003.71
2017-05-10T08:13:27.388Z,1003.58
2017-05-10T08:14:28.027Z,1003.64
2017-05-10T08:15:28.668Z,1003.62
2017-05-10T08:16:29.305Z,1003.66
2017-05-10T08:17:29.947Z,1003.61
2017-05-10T08:18:30.590Z,1003.60
2017-05-10T08:19:31.231Z,1003.57
2017-05-10T08:20:32.075Z,1003.58
2017-05-10T08:21:32.718Z,1003.65
2017-05-10T08:22:33.358Z,1003.60
2017-05-10T08:23:34.000Z,1003.61
2017-05-10T08:24:34.640Z,1003.54
2017-05-10T08:25:35.284Z,1003.53
2017-05-10T08:26:35.925Z,1003.48
2017-05-10T08:27:36.560Z,1003.53
2017-05-10T08:28:37.198Z,1003.53
2017-05-10T08:29:38.460Z,1003.51
2017-05-10T08:30:39.104Z,1003.47
2017-05-10T08:31:39.748Z,1003.49
2017-05-10T08:32:40.394Z,1003.46
2017-05-10T08:33:41.038Z,1003.49
2017-05-10T08:34:41.679Z,1003.45
2017-05-10T08:35:42.324Z,1003.45
2017-05-10T08:36:42.972Z,1003.40
2017-05-10T08:37:43.818Z,1003.34
2017-05-10T08:38:44.462Z,1003.33
2017-05-10T08:39:45.109Z,1003.37
2017-05-10T08:40:45.752Z,1003.27
2017-05-10T08:41:46.397Z,1003.37
2017-05-10T08:42:47.043Z,1003.30
2017-05-10T08:43:47.683Z,1003.34
2017-05-10T08:44:48.330Z,1003.30
2017-05-10T08:45:49.125Z,1003.20
2017-05-10T08:46:49.768Z,1003.31
2017-05-10T08:47:50.413Z,1003.23
2017-05-10T08:48:51.054Z,1003.25
2017-05-10T08:49:51.700Z,1003.23
2017-05-10T08:50:52.347Z,1003.28
2017-05-10T08:51:52.989Z,1003.23
2017-05-10T08:52:53.631Z,1003.24
2017-05-10T08:53:54.675Z,1003.24
2017-05-10T08:54:55.321Z,1003.22
2017-05-10T08:55:55.966Z,1003.12
2017-05-10T08:56:56.608Z,1003.21
2017-05-10T08:57:57.248Z,1003.17
2017-05-10T08:58:57.895Z,1003.09
2017-05-10T08:59:58.541Z,1003.10
2017-05-10T09:00:59.183Z,1003.07
2017-05-10T09:01:59.827Z,1003.11
2017-05-10T09:03:00.670Z,1003.09
2017-05-10T09:04:01.314Z,1003.11
2017-05-10T09:05:01.960Z,1003.17
2017-05-10T09:06:02.604Z,1003.10
2017-05-10T09:07:03.251Z,1003.06
2017-05-10T09:08:03.893Z,1003.10
2017-05-10T09:09:04.534Z,1003.01
2017-05-10T09:10:05.180Z,1003.00
2017-05-10T09:11:06.025Z,1003.00
2017-05-10T09:12:06.669Z,1002.93
2017-05-10T09:13:07.311Z,1002.93
2017-05-10T09:14:07.952Z,1002.86
2017-05-10T09:15:08.598Z,1002.90
2017-05-10T09:16:09.245Z,1002.91
2017-05-10T09:17:09.892Z,1002.88
2017-05-10T09:18:10.537Z,1002.92
2017-05-10T09:19:11.335Z,1002.82
2017-05-10T09:20:11.975Z,1002.81
2017-05-10T09:21:12.626Z,1002.82
2017-05-10T09:22:13.268Z,1002.89
2017-05-10T09:23:13.914Z,1002.79
2017-05-10T09:24:14.558Z,1002.77
2017-05-10T09:25:15.208Z,1002.82
2017-05-10T09:26:15.851Z,1002.78
2017-05-10T09:27:16.799Z,1002.75
2017-05-10T09:28:17.443Z,1002.93
2017-05-10T09:29:18.089Z,1002.83
2017-05-10T09:30:18.735Z,1002.87
2017-05-10T09:31:19.377Z,1002.80
2017-05-10T09:32:20.021Z,1002.87
2017-05-10T09:33:20.668Z,1002.96
2017-05-10T09:34:21.312Z,1003.00
2017-05-10T09:35:22.152Z,1002.97
2017-05-10T09:36:22.795Z,1003.03
2017-05-10T09:37:23.444Z,1003.00
2017-05-10T09:38:24.088Z,1003.09
2017-05-10T09:39:24.737Z,1003.06
2017-05-10T09:40:25.381Z,1003.15
2017-05-10T09:41:26.029Z,1003.13
2017-05-10T09:42:26.667Z,1003.08
2017-05-10T09:43:27.308Z,1003.09
2017-05-10T09:44:28.153Z,1003.07
2017-05-10T09:45:28.800Z,1003.06
2017-05-10T09:46:29.452Z,1003.16
2017-05-10T09:47:30.091Z,1003.16
2017-05-10T09:48:30.736Z,1003.11
2017-05-10T09:49:31.382Z,1003.15
2017-05-10T09:50:32.028Z,1003.22
2017-05-10T09:51:32.671Z,1003.26
2017-05-10T09:52:33.464Z,1003.20
2017-05-10T09:53:34.107Z,1003.24
2017-05-10T09:54:34.752Z,1003.26
2017-05-10T09:55:35.401Z,1003.27
2017-05-10T09:56:36.046Z,1003.24
2017-05-10T09:57:36.690Z,1003.25
2017-05-10T09:58:37.330Z,1003.31
2017-05-10T09:59:37.974Z,1003.29
2017-05-10T10:00:38.918Z,1003.29
2017-05-10T10:01:39.565Z,1003.29
2017-05-10T10:02:40.207Z,1003.17
2017-05-10T10:03:40.852Z,1003.21
2017-05-10T10:04:41.497Z,1003.28
2017-05-10T10:05:42.141Z,1003.27
2017-05-10T10:06:42.786Z,1003.30
2017-05-10T10:07:43.430Z,1003.22
2017-05-10T10:08:44.225Z,1003.29
2017-05-10T10:09:44.869Z,1003.26
2017-05-10T10:10:45.513Z,1003.22
2017-05-10T10:11:46.158Z,1003.24
2017-05-10T10:12:46.801Z,1003.25
2017-05-10T10:13:47.452Z,1003.23
2017-05-10T10:14:48.090Z,1003.19
2017-05-10T10:15:48.734Z,1003.24
2017-05-10T10:16:49.374Z,1003.17
2017-05-10T10:17:50.221Z,1003.25
2017-05-10T10:18:50.863Z,1003.28
2017-05-10T10:19:51.503Z,1003.23
2017-05-10T10:20:52.147Z,1003.16
2017-05-10T10:21:52.792Z,1003.15
2017-05-10T10:22:53.439Z,1003.17
2017-05-10T10:23:54.080Z,1003.13
2017-05-10T10:24:54.728Z,1003.19
2017-05-10T10:25:55.565Z,1003.13
2017-05-10T10:26:56.205Z,1003.12
2017-05-10T10:27:56.848Z,1003.10
2017-05-10T10:28:57.496Z,1003.05
2017-05-10T10:29:58.142Z,1003.02
2017-05-10T10:30:58.782Z,1003.03
2017-05-10T10:31:59.427Z,1002.99
2017-05-10T10:33:00.073Z,1003.02
2017-05-10T10:34:00.916Z,1002.99
2017-05-10T10:35:01.562Z,1002.95
2017-05-10T10:36:02.206Z,1002.97
2017-05-10T10:37:02.853Z,1003.03
2017-05-10T10:38:03.493Z,1003.02
2017-05-10T10:39:04.140Z,1003.02
2017-05-10T10:40:04.786Z,1002.93
2017-05-10T10:41:05.431Z,1002.93
2017-05-10T10:42:06.277Z,1002.88
2017-05-10T10:43:06.923Z,1002.86
2017-05-10T10:44:07.568Z,1002.89
2017-05-10T10:45:08.209Z,1002.87
2017-05-10T10:46:08.853Z,1002.85
2017-05-10T10:47:09.498Z,1002.89
2017-05-10T10:48:10.139Z,1002.78
2017-05-10T10:49:10.783Z,1002.83
2017-05-10T10:50:11.624Z,1002.78
2017-05-10T10:51:12.268Z,1002.75
2017-05-10T10:52:12.913Z,1002.77
2017-05-10T10:53:13.558Z,1002.79
2017-05-10T10:54:14.203Z,1002.75
2017-05-10T10:55:14.847Z,1002.72
2017-05-10T10:56:15.488Z,1002.79
2017-05-10T10:57:16.134Z,1002.80
2017-05-10T10:58:16.778Z,1002.72
2017-05-10T10:59:17.617Z,1002.64
2017-05-10T11:00:18.255Z,1002.67
2017-05-10T11:01:18.897Z,1002.68
2017-05-10T11:02:19.543Z,1002.73
2017-05-10T11:03:20.184Z,1002.66
2017-05-10T11:04:20.822Z,1002.67
2017-05-10T11:05:21.464Z,1002.60
2017-05-10T11:06:22.107Z,1002.60
2017-05-10T11:07:22.949Z,1002.64
2017-05-10T11:08:23.592Z,1002.68
2017-05-10T11:09:24.235Z,1002.77
2017-05-10T11:10:24.881Z,1002.70
2017-05-10T11:11:25.517Z,1002.58
2017-05-10T11:12:26.155Z,1002.63
2017-05-10T11:13:26.801Z,1002.53
2017-05-10T11:14:27.442Z,1002.62
2017-05-10T11:15:28.335Z,1002.63
2017-05-10T11:16:28.976Z,1002.63
2017-05-10T11:17:29.615Z,1002.55
2017-05-10T11:18:30.259Z,1002.47
2017-05-10T11:19:30.957Z,1002.50
2017-05-10T11:20:31.600Z,1002.52
2017-05-10T11:21:32.243Z,1002.60
2017-05-10T11:22:32.884Z,1002.61
2017-05-10T11:23:33.578Z,1002.57
2017-05-10T11:24:34.222Z,1002.58
2017-05-10T11:25:34.863Z,1002.56
2017-05-10T11:26:35.501Z,1002.51
2017-05-10T11:27:36.145Z,1002.56
2017-05-10T11:28:36.787Z,1002.56
2017-05-10T11:29:37.431Z,1002.61
2017-05-10T11:30:38.079Z,1002.51
2017-05-10T11:31:38.725Z,1002.36
2017-05-10T11:32:39.717Z,1002.28
2017-05-10T11:33:40.365Z,1002.26
2017-05-10T11:34:40.963Z,1002.21
2017-05-10T11:35:41.606Z,1002.18
2017-05-10T11:36:42.248Z,1001.99
2017-05-10T11:37:42.892Z,1001.82
2017-05-10T11:38:43.536Z,1001.81
2017-05-10T11:39:44.180Z,1001.92
2017-05-10T11:40:45.076Z,1002.21
2017-05-10T11:41:45.721Z,1002.25
2017-05-10T11:42:46.362Z,1002.33
2017-05-10T11:43:47.009Z,1002.22
2017-05-10T11:44:47.655Z,1001.97
2017-05-10T11:45:48.315Z,1001.95
2017-05-10T11:46:48.944Z,1002.10
2017-05-10T11:47:49.590Z,1002.13
2017-05-10T11:48:50.532Z,1002.23
2017-05-10T11:49:51.334Z,1002.18
2017-05-10T11:50:51.975Z,1002.26
2017-05-10T11:51:52.617Z,1002.30
2017-05-10T11:52:53.264Z,1002.27
2017-05-10T11:53:53.910Z,1002.24
2017-05-10T11:54:54.558Z,1002.35
2017-05-10T11:55:55.203Z,1002.39
2017-05-10T11:56:55.844Z,1002.33
2017-05-10T11:57:56.741Z,1002.27
2017-05-10T11:58:57.385Z,1002.25
2017-05-10T11:59:58.032Z,1002.30
2017-05-10T12:00:58.675Z,1002.37
2017-05-10T12:01:59.319Z,1002.32
2017-05-10T12:02:59.964Z,1002.35
2017-05-10T12:04:00.618Z,1002.42
2017-05-10T12:05:01.255Z,1002.38
2017-05-10T12:06:02.094Z,1002.38
2017-05-10T12:07:02.739Z,1002.16
2017-05-10T12:08:03.379Z,1002.17
2017-05-10T12:09:04.024Z,1001.97
2017-05-10T12:10:04.669Z,1001.98
2017-05-10T12:11:05.314Z,1001.89
2017-05-10T12:12:05.960Z,1001.75
2017-05-10T12:13:06.609Z,1001.79